createdAt,value
2019-04-22T00:01:18.678Z,0.00
2019-04-22T00:01:57.502Z,0.00
2019-04-22T00:02:57.521Z,0.00
2019-04-22T00:04:00.718Z,0.00
2019-04-22T00:05:06.109Z,0.00
2019-04-22T00:06:12.930Z,0.00
2019-04-22T00:07:35.870Z,0.00
2019-04-22T00:08:18.366Z,0.00
2019-04-22T00:09:19.206Z,0.00
2019-04-22T00:10:19.502Z,0.00
2019-04-22T00:11:16.106Z,0.00
2019-04-22T00:12:19.553Z,0.00
2019-04-22T00:13:42.265Z,0.00
2019-04-22T00:14:11.870Z,0.00
2019-04-22T00:15:12.714Z,0.00
2019-04-22T00:16:22.592Z,0.00
2019-04-22T00:17:21.981Z,0.00
2019-04-22T00:18:19.917Z,0.00
2019-04-22T00:19:45.595Z,0.00
2019-04-22T00:20:20.366Z,0.00
2019-04-22T00:21:19.501Z,0.00
2019-04-22T00:23:18.399Z,0.00
2019-04-22T00:24:22.116Z,0.00
2019-04-22T00:25:42.058Z,0.00
2019-04-22T00:27:26.144Z,0.00
2019-04-22T00:28:24.524Z,0.00
2019-04-22T00:29:39.198Z,0.00
2019-04-22T00:30:28.454Z,0.00
2019-04-22T00:31:40.512Z,0.00
2019-04-22T00:32:20.322Z,0.00
2019-04-22T00:33:18.670Z,0.00
2019-04-22T00:34:21.277Z,0.00
2019-04-22T00:35:16.628Z,0.00
2019-04-22T00:36:16.609Z,0.00
2019-04-22T00:37:58.385Z,0.00
2019-04-22T00:39:22.105Z,0.00
2019-04-22T00:40:21.273Z,0.00
2019-04-22T00:41:20.362Z,0.00
2019-04-22T00:42:14.742Z,0.00
2019-04-22T00:43:42.427Z,0.00
2019-04-22T00:44:21.890Z,0.00
2019-04-22T00:45:21.851Z,0.00
2019-04-22T00:46:22.643Z,0.00
2019-04-22T00:47:21.498Z,0.00
2019-04-22T00:48:21.071Z,0.00
2019-04-22T00:50:08.707Z,0.00
2019-04-22T00:50:22.428Z,0.00
2019-04-22T00:51:22.669Z,0.00
2019-04-22T00:52:18.654Z,0.00
2019-04-22T00:54:17.052Z,0.00
2019-04-22T00:55:38.072Z,0.00
2019-04-22T00:56:17.209Z,0.00
2019-04-22T00:57:15.787Z,0.00
2019-04-22T00:58:16.713Z,0.00
2019-04-22T00:59:17.322Z,0.00
2019-04-22T01:00:17.633Z,0.00
2019-04-22T01:01:36.978Z,0.00
2019-04-22T01:02:20.197Z,0.00
2019-04-22T01:03:21.578Z,0.00
2019-04-22T01:04:25.554Z,0.00
2019-04-22T01:05:22.022Z,0.00
2019-04-22T01:06:21.465Z,0.00
2019-04-22T01:07:38.896Z,0.00
2019-04-22T01:08:26.702Z,0.00
2019-04-22T01:09:18.986Z,0.00
2019-04-22T01:10:18.838Z,0.00
2019-04-22T01:11:23.810Z,0.00
2019-04-22T01:12:19.677Z,0.00
2019-04-22T01:13:38.643Z,0.00
2019-04-22T01:14:14.110Z,0.00
2019-04-22T01:15:26.122Z,0.00
2019-04-22T01:16:17.737Z,0.00
2019-04-22T01:17:19.056Z,0.00
2019-04-22T01:18:21.001Z,0.00
2019-04-22T01:19:47.163Z,0.00
2019-04-22T01:20:38.501Z,0.00
2019-04-22T01:21:27.514Z,0.00
2019-04-22T01:22:16.293Z,0.00
2019-04-22T01:23:19.146Z,0.00
2019-04-22T01:24:17.540Z,0.00
2019-04-22T01:25:29.427Z,0.00
2019-04-22T01:26:12.505Z,0.00
2019-04-22T01:27:09.119Z,0.00
2019-04-22T01:28:08.559Z,0.00
2019-04-22T01:29:05.374Z,0.00
2019-04-22T01:30:07.241Z,0.00
2019-04-22T01:31:19.615Z,0.00
2019-04-22T01:31:54.488Z,0.00
2019-04-22T01:33:03.590Z,0.00
2019-04-22T01:34:07.907Z,0.00
2019-04-22T01:35:08.395Z,0.00
2019-04-22T01:36:13.919Z,0.00
2019-04-22T01:37:34.347Z,0.00
2019-04-22T01:38:07.891Z,0.00
2019-04-22T01:39:18.085Z,0.00
2019-04-22T01:40:24.063Z,0.00
2019-04-22T01:41:26.622Z,0.00
2019-04-22T01:42:18.671Z,0.00
2019-04-22T01:43:54.369Z,0.00
2019-04-22T01:44:29.065Z,0.00
2019-04-22T01:45:22.716Z,0.00
2019-04-22T01:46:25.771Z,0.00
2019-04-22T01:47:19.645Z,0.00
2019-04-22T01:48:22.817Z,0.00
2019-04-22T01:49:40.166Z,0.00
2019-04-22T01:50:23.913Z,0.00
2019-04-22T01:51:22.353Z,0.00
2019-04-22T01:52:16.972Z,0.00
2019-04-22T01:53:24.097Z,0.00
2019-04-22T01:56:19.494Z,0.00
2019-04-22T01:57:20.759Z,0.00
2019-04-22T01:58:20.418Z,0.00
2019-04-22T01:59:14.011Z,0.00
2019-04-22T02:00:11.335Z,0.00
2019-04-22T02:01:43.696Z,0.00
2019-04-22T02:02:28.845Z,0.00
2019-04-22T02:03:19.054Z,0.00
2019-04-22T02:04:26.928Z,0.00
2019-04-22T02:05:17.731Z,0.00
2019-04-22T02:06:28.801Z,0.00
2019-04-22T02:07:41.907Z,0.00
2019-04-22T02:08:25.487Z,0.00
2019-04-22T02:09:22.472Z,0.00
2019-04-22T02:10:30.152Z,0.00
2019-04-22T02:11:26.651Z,0.00
2019-04-22T02:12:19.957Z,0.00
2019-04-22T02:13:43.086Z,0.00
2019-04-22T02:14:24.686Z,0.00
2019-04-22T02:15:17.022Z,0.00
2019-04-22T02:16:23.152Z,0.00
2019-04-22T02:17:26.701Z,0.00
2019-04-22T02:18:23.394Z,0.00
2019-04-22T02:19:46.772Z,0.00
2019-04-22T02:20:17.546Z,0.00
2019-04-22T02:21:24.890Z,0.00
2019-04-22T02:22:29.039Z,0.00
2019-04-22T02:24:26.438Z,0.00
2019-04-22T02:25:41.000Z,0.00
2019-04-22T02:26:26.020Z,0.00
2019-04-22T02:27:29.359Z,0.00
2019-04-22T02:28:32.560Z,0.00
2019-04-22T02:29:22.137Z,0.00
2019-04-22T02:30:30.071Z,0.00
2019-04-22T02:31:46.351Z,0.00
2019-04-22T02:34:35.081Z,0.00
2019-04-22T02:35:34.644Z,0.00
2019-04-22T02:38:09.309Z,0.00
2019-04-22T02:38:44.634Z,0.00
2019-04-22T02:39:41.073Z,0.00
2019-04-22T02:40:40.556Z,0.00
2019-04-22T02:42:21.455Z,0.00
2019-04-22T02:45:26.602Z,0.00
2019-04-22T02:49:47.025Z,0.00
2019-04-22T02:50:16.116Z,0.00
2019-04-22T02:51:23.011Z,0.00
2019-04-22T02:52:37.959Z,0.00
2019-04-22T02:53:59.273Z,0.00
2019-04-22T02:54:44.236Z,0.00
2019-04-22T02:55:48.922Z,0.00
2019-04-22T02:57:32.010Z,0.00
2019-04-22T02:58:41.512Z,0.00
2019-04-22T02:59:25.895Z,0.00
2019-04-22T03:00:34.601Z,0.00
2019-04-22T03:01:53.189Z,0.00
2019-04-22T03:02:35.666Z,0.00
2019-04-22T03:03:54.504Z,0.00
2019-04-22T03:04:22.785Z,0.00
2019-04-22T03:05:37.043Z,0.00
2019-04-22T03:06:30.449Z,0.00
2019-04-22T03:07:55.917Z,0.00
2019-04-22T03:09:23.920Z,0.00
2019-04-22T03:10:30.104Z,0.00
2019-04-22T03:11:25.308Z,0.00
2019-04-22T03:12:25.149Z,0.00
2019-04-22T03:14:26.286Z,0.00
2019-04-22T03:15:20.207Z,0.00
2019-04-22T03:17:29.208Z,0.00
2019-04-22T03:18:38.486Z,0.00
2019-04-22T03:20:41.936Z,0.00
2019-04-22T03:21:23.912Z,0.00
2019-04-22T03:22:26.347Z,0.00
2019-04-22T03:23:34.153Z,0.00
2019-04-22T03:24:27.751Z,0.00
2019-04-22T03:27:30.053Z,0.00
2019-04-22T03:28:29.189Z,0.00
2019-04-22T03:29:37.215Z,0.00
2019-04-22T03:32:12.908Z,0.00
2019-04-22T03:32:59.360Z,0.00
2019-04-22T03:35:37.091Z,0.00
2019-04-22T03:38:41.504Z,0.00
2019-04-22T03:39:40.089Z,0.00
2019-04-22T03:41:36.764Z,0.00
2019-04-22T03:42:21.547Z,0.00
2019-04-22T03:43:54.101Z,0.00
2019-04-22T03:44:31.065Z,0.00
2019-04-22T03:45:31.991Z,0.00
2019-04-22T03:46:30.481Z,0.00
2019-04-22T03:47:34.340Z,0.00
2019-04-22T03:48:26.163Z,0.00
2019-04-22T03:50:24.869Z,0.00
2019-04-22T03:51:39.945Z,0.00
2019-04-22T03:53:38.563Z,4.00
2019-04-22T03:54:45.782Z,4.00
2019-04-22T03:55:46.939Z,0.00
2019-04-22T03:56:59.120Z,4.00
2019-04-22T03:57:44.752Z,4.00
2019-04-22T03:58:21.068Z,4.00
2019-04-22T04:01:52.929Z,4.00
2019-04-22T04:02:38.836Z,8.00
2019-04-22T04:03:36.326Z,8.00
2019-04-22T04:06:29.693Z,8.00
2019-04-22T04:10:36.275Z,20.00
2019-04-22T04:11:38.990Z,24.00
2019-04-22T04:13:57.916Z,32.00
2019-04-22T04:14:47.162Z,36.00
2019-04-22T04:16:30.656Z,52.00
2019-04-22T04:17:34.157Z,60.00
2019-04-22T04:18:30.717Z,68.00
2019-04-22T04:20:05.666Z,80.00
2019-04-22T04:20:32.536Z,88.00
2019-04-22T04:22:41.464Z,112.00
2019-04-22T04:26:04.289Z,152.00
2019-04-22T04:27:43.792Z,188.00
2019-04-22T04:29:50.739Z,220.00
2019-04-22T04:31:58.642Z,260.00
2019-04-22T04:33:35.902Z,304.00
2019-04-22T04:34:51.106Z,324.00
2019-04-22T04:36:37.089Z,376.00
2019-04-22T04:37:52.265Z,400.00
2019-04-22T04:38:28.721Z,428.00
2019-04-22T04:43:52.655Z,572.00
2019-04-22T04:44:59.266Z,600.00
2019-04-22T04:45:41.143Z,632.00
2019-04-22T04:46:37.745Z,660.00
2019-04-22T04:47:43.549Z,688.00
2019-04-22T04:48:36.975Z,724.00
2019-04-22T04:49:52.488Z,752.00
2019-04-22T04:50:35.247Z,784.00
2019-04-22T04:52:39.689Z,852.00
2019-04-22T04:54:31.825Z,916.00
2019-04-22T04:55:47.055Z,952.00
2019-04-22T04:56:39.951Z,984.00
2019-04-22T04:57:33.557Z,1016.00
2019-04-22T04:58:47.399Z,1052.00
2019-04-22T04:59:39.398Z,1088.00
2019-04-22T05:02:10.085Z,1156.00
2019-04-22T05:02:39.982Z,1192.00
2019-04-22T05:03:39.910Z,1224.00
2019-04-22T05:04:41.239Z,1256.00
2019-04-22T05:05:26.814Z,1288.00
2019-04-22T05:06:39.670Z,1320.00
2019-04-22T05:07:50.146Z,1352.00
2019-04-22T05:08:40.635Z,1384.00
2019-04-22T05:09:41.132Z,1412.00
2019-04-22T05:10:43.739Z,1448.00
2019-04-22T05:11:43.032Z,1472.00
2019-04-22T05:14:05.481Z,1524.00
2019-04-22T05:14:24.044Z,1544.00
2019-04-22T05:15:29.781Z,1568.00
2019-04-22T05:16:36.463Z,1588.00
2019-04-22T05:17:37.476Z,1612.00
2019-04-22T05:18:29.066Z,1640.00
2019-04-22T05:19:50.279Z,1668.00
2019-04-22T05:20:34.166Z,1696.00
2019-04-22T05:21:24.391Z,1728.00
2019-04-22T05:22:28.302Z,1760.00
2019-04-22T05:23:32.432Z,1796.00
2019-04-22T05:25:41.354Z,1856.00
2019-04-22T05:26:30.898Z,1884.00
2019-04-22T05:27:27.955Z,1912.00
2019-04-22T05:28:23.987Z,1944.00
2019-04-22T05:29:27.807Z,1976.00
2019-04-22T05:31:49.941Z,2020.00
2019-04-22T05:32:27.065Z,2048.00
2019-04-22T05:33:22.413Z,2072.00
2019-04-22T05:34:26.481Z,2088.00
2019-04-22T05:35:26.572Z,2104.00
2019-04-22T05:36:34.415Z,2124.00
2019-04-22T05:37:49.943Z,2140.00
2019-04-22T05:38:30.226Z,2168.00
2019-04-22T05:39:21.324Z,2196.00
2019-04-22T05:40:24.477Z,2212.00
2019-04-22T05:41:23.321Z,2220.00
2019-04-22T05:42:18.086Z,2252.00
2019-04-22T05:43:42.123Z,2256.00
2019-04-22T05:44:30.906Z,2280.00
2019-04-22T05:45:31.419Z,2308.00
2019-04-22T05:46:22.402Z,2324.00
2019-04-22T05:47:20.837Z,2352.00
2019-04-22T05:48:27.371Z,2364.00
2019-04-22T05:49:41.562Z,2372.00
2019-04-22T05:50:37.328Z,2368.00
2019-04-22T05:51:29.347Z,2364.00
2019-04-22T05:52:21.309Z,2356.00
2019-04-22T05:53:21.245Z,2356.00
2019-04-22T05:54:20.912Z,2344.00
2019-04-22T05:55:52.396Z,2328.00
2019-04-22T05:56:37.515Z,2300.00
2019-04-22T05:58:22.596Z,2252.00
2019-04-22T05:59:24.370Z,2224.00
2019-04-22T06:00:36.977Z,2200.00
2019-04-22T06:01:52.288Z,2204.00
2019-04-22T06:02:36.054Z,2208.00
2019-04-22T06:03:21.029Z,2224.00
2019-04-22T06:04:23.271Z,2236.00
2019-04-22T06:05:24.717Z,2244.00
2019-04-22T06:07:38.723Z,2236.00
2019-04-22T06:08:24.222Z,2248.00
2019-04-22T06:09:24.288Z,2224.00
2019-04-22T06:10:29.080Z,2232.00
2019-04-22T06:11:27.070Z,2260.00
2019-04-22T06:12:18.457Z,2248.00
2019-04-22T06:13:38.847Z,2236.00
2019-04-22T06:14:23.080Z,2252.00
2019-04-22T06:15:23.476Z,2264.00
2019-04-22T06:16:26.524Z,2292.00
2019-04-22T06:17:24.651Z,2296.00
2019-04-22T06:19:47.595Z,2348.00
2019-04-22T06:20:27.121Z,2360.00
2019-04-22T06:21:26.618Z,2404.00
2019-04-22T06:22:34.261Z,2444.00
2019-04-22T06:23:25.644Z,2460.00
2019-04-22T06:24:28.974Z,2468.00
2019-04-22T06:26:35.751Z,2476.00
2019-04-22T06:28:36.682Z,2540.00
2019-04-22T06:30:31.732Z,2548.00
2019-04-22T06:32:15.276Z,2556.00
2019-04-22T06:34:24.928Z,2576.00
2019-04-22T06:35:30.711Z,2580.00
2019-04-22T06:36:24.522Z,2608.00
2019-04-22T06:37:59.829Z,2572.00
2019-04-22T06:40:27.520Z,2640.00
2019-04-22T06:41:31.684Z,2644.00
2019-04-22T06:42:28.410Z,2668.00
2019-04-22T06:43:52.943Z,2700.00
2019-04-22T06:44:24.134Z,2688.00
2019-04-22T06:45:23.539Z,2728.00
2019-04-22T06:46:29.929Z,2764.00
2019-04-22T06:47:40.181Z,2800.00
2019-04-22T06:48:36.037Z,2816.00
2019-04-22T06:49:46.621Z,2816.00
2019-04-22T06:50:26.129Z,2820.00
2019-04-22T06:51:29.209Z,2864.00
2019-04-22T06:53:23.717Z,2956.00
2019-04-22T06:54:32.880Z,2956.00
2019-04-22T06:55:47.073Z,2928.00
2019-04-22T06:56:22.152Z,2924.00
2019-04-22T06:57:25.355Z,2948.00
2019-04-22T06:58:21.776Z,2952.00
2019-04-22T06:59:26.514Z,2948.00
2019-04-22T07:00:24.508Z,2984.00
2019-04-22T07:01:42.435Z,3068.00
2019-04-22T07:02:25.612Z,3096.00
2019-04-22T07:04:22.253Z,3112.00
2019-04-22T07:05:21.810Z,3108.00
2019-04-22T07:06:31.677Z,3104.00
2019-04-22T07:07:44.964Z,3120.00
2019-04-22T07:09:28.781Z,3096.00
2019-04-22T07:11:19.075Z,3168.00
2019-04-22T07:12:24.311Z,3208.00
2019-04-22T07:14:01.876Z,3236.00
2019-04-22T07:14:22.374Z,3296.00
2019-04-22T07:15:44.125Z,3332.00
2019-04-22T07:16:30.224Z,3336.00
2019-04-22T07:17:39.370Z,3356.00
2019-04-22T07:19:45.354Z,3404.00
2019-04-22T07:20:24.198Z,3444.00
2019-04-22T07:21:27.184Z,3468.00
2019-04-22T07:22:22.558Z,3492.00
2019-04-22T07:23:43.336Z,3504.00
2019-04-22T07:25:59.624Z,3536.00
2019-04-22T07:26:19.987Z,3528.00
2019-04-22T07:27:21.945Z,3556.00
2019-04-22T07:28:21.227Z,3560.00
2019-04-22T07:29:26.635Z,3584.00
2019-04-22T07:30:26.514Z,3600.00
2019-04-22T07:31:49.855Z,3668.00
2019-04-22T07:33:00.657Z,3680.00
2019-04-22T07:33:31.275Z,3628.00
2019-04-22T07:34:27.734Z,3676.00
2019-04-22T07:35:32.161Z,3732.00
2019-04-22T07:37:41.849Z,3704.00
2019-04-22T07:38:23.844Z,3704.00
2019-04-22T07:39:23.561Z,3724.00
2019-04-22T07:40:26.691Z,3700.00
2019-04-22T07:41:23.064Z,3748.00
2019-04-22T07:42:25.935Z,3756.00
2019-04-22T07:43:59.747Z,3796.00
2019-04-22T07:44:26.534Z,3820.00
2019-04-22T07:45:25.472Z,3860.00
2019-04-22T07:46:26.598Z,3920.00
2019-04-22T07:47:32.350Z,3924.00
2019-04-22T07:48:33.884Z,3944.00
2019-04-22T07:49:48.986Z,3944.00
2019-04-22T07:50:39.749Z,3956.00
2019-04-22T07:51:36.377Z,3956.00
2019-04-22T07:52:22.966Z,3980.00
2019-04-22T07:53:21.882Z,4012.00
2019-04-22T07:54:26.513Z,4020.00
2019-04-22T07:55:45.364Z,4040.00
2019-04-22T07:56:27.643Z,4100.00
2019-04-22T07:57:28.282Z,4120.00
2019-04-22T07:58:25.777Z,4140.00
2019-04-22T07:59:28.036Z,4112.00
2019-04-22T08:00:23.047Z,4140.00
2019-04-22T08:01:42.768Z,4136.00
2019-04-22T08:02:26.634Z,4140.00
2019-04-22T08:03:28.975Z,4164.00
2019-04-22T08:04:44.750Z,4180.00
2019-04-22T08:05:24.855Z,4200.00
2019-04-22T08:06:26.775Z,4232.00
2019-04-22T08:08:11.515Z,4232.00
2019-04-22T08:08:26.127Z,4276.00
2019-04-22T08:09:34.088Z,4304.00
2019-04-22T08:10:34.828Z,4320.00
2019-04-22T08:12:29.635Z,4348.00
2019-04-22T08:14:03.558Z,4352.00
2019-04-22T08:14:28.304Z,4360.00
2019-04-22T08:15:28.007Z,4348.00
2019-04-22T08:16:25.100Z,4360.00
2019-04-22T08:18:28.006Z,4360.00
2019-04-22T08:19:48.474Z,4388.00
2019-04-22T08:20:29.014Z,4420.00
2019-04-22T08:21:23.722Z,4420.00
2019-04-22T08:22:23.918Z,4440.00
2019-04-22T08:24:28.857Z,4476.00
2019-04-22T08:25:45.576Z,4468.00
2019-04-22T08:26:27.318Z,4472.00
2019-04-22T08:27:26.893Z,4496.00
2019-04-22T08:29:43.400Z,4496.00
2019-04-22T08:30:28.608Z,4504.00
2019-04-22T08:31:49.177Z,4516.00
2019-04-22T08:32:29.904Z,4540.00
2019-04-22T08:33:29.026Z,4548.00
2019-04-22T08:34:24.577Z,4556.00
2019-04-22T08:35:20.001Z,4604.00
2019-04-22T08:36:26.281Z,4624.00
2019-04-22T08:37:51.218Z,4604.00
2019-04-22T08:38:37.658Z,4624.00
2019-04-22T08:39:26.779Z,4664.00
2019-04-22T08:40:28.800Z,4716.00
2019-04-22T08:41:31.898Z,4692.00
2019-04-22T08:42:35.428Z,4720.00
2019-04-22T08:43:56.611Z,4740.00
2019-04-22T08:44:40.230Z,4744.00
2019-04-22T08:45:32.723Z,4724.00
2019-04-22T08:48:24.621Z,4728.00
2019-04-22T08:49:57.129Z,4784.00
2019-04-22T08:50:26.680Z,4784.00
2019-04-22T08:51:25.302Z,4820.00
2019-04-22T08:52:30.262Z,4780.00
2019-04-22T08:53:23.449Z,4844.00
2019-04-22T08:54:28.341Z,4824.00
2019-04-22T08:56:37.645Z,4880.00
2019-04-22T08:57:40.891Z,4924.00
2019-04-22T08:58:27.360Z,4912.00
2019-04-22T08:59:46.579Z,4940.00
2019-04-22T09:00:33.872Z,4940.00
2019-04-22T09:01:45.286Z,4928.00
2019-04-22T09:02:34.574Z,5040.00
2019-04-22T09:03:23.958Z,4960.00
2019-04-22T09:04:16.345Z,5012.00
2019-04-22T09:05:42.477Z,5032.00
2019-04-22T09:06:49.411Z,5016.00
2019-04-22T09:07:48.873Z,5068.00
2019-04-22T09:08:27.877Z,5088.00
2019-04-22T09:09:27.079Z,5096.00
2019-04-22T09:10:33.512Z,5064.00
2019-04-22T09:11:33.827Z,5184.00
2019-04-22T09:12:37.046Z,5148.00
2019-04-22T09:13:53.196Z,5188.00
2019-04-22T09:14:34.230Z,5260.00
2019-04-22T09:15:30.877Z,5228.00
2019-04-22T09:16:32.085Z,5216.00
2019-04-22T09:17:39.881Z,5272.00
2019-04-22T09:18:32.941Z,5284.00
2019-04-22T09:19:47.717Z,5288.00
2019-04-22T09:20:28.418Z,5360.00
2019-04-22T09:21:34.415Z,5316.00
2019-04-22T09:22:21.748Z,5364.00
2019-04-22T09:23:30.329Z,5400.00
2019-04-22T09:24:23.372Z,5424.00
2019-04-22T09:25:51.095Z,5504.00
2019-04-22T09:26:30.271Z,5464.00
2019-04-22T09:27:37.017Z,5508.00
2019-04-22T09:28:34.667Z,5532.00
2019-04-22T09:29:32.575Z,5560.00
2019-04-22T09:30:30.680Z,5620.00
2019-04-22T09:31:57.011Z,5692.00
2019-04-22T09:32:26.407Z,5644.00
2019-04-22T09:33:27.166Z,5652.00
2019-04-22T09:34:27.803Z,5736.00
2019-04-22T09:35:31.885Z,5736.00
2019-04-22T09:36:29.687Z,5768.00
2019-04-22T09:38:08.938Z,5780.00
2019-04-22T09:39:30.226Z,5872.00
2019-04-22T09:40:43.032Z,5892.00
2019-04-22T09:41:27.160Z,5924.00
2019-04-22T09:42:24.147Z,5960.00
2019-04-22T09:43:52.341Z,6004.00
2019-04-22T09:44:31.087Z,6016.00
2019-04-22T09:45:21.393Z,6088.00
2019-04-22T09:46:28.429Z,6160.00
2019-04-22T09:47:30.713Z,6132.00
2019-04-22T09:48:33.554Z,6176.00
2019-04-22T09:50:03.830Z,6148.00
2019-04-22T09:50:30.538Z,6148.00
2019-04-22T09:51:25.727Z,6312.00
2019-04-22T09:52:28.142Z,6300.00
2019-04-22T09:53:31.927Z,6436.00
2019-04-22T09:54:29.686Z,6456.00
2019-04-22T09:55:55.219Z,6404.00
2019-04-22T09:56:33.568Z,6636.00
2019-04-22T09:57:24.469Z,6584.00
2019-04-22T09:58:31.674Z,6568.00
2019-04-22T09:59:32.659Z,6720.00
2019-04-22T10:00:32.721Z,6760.00
2019-04-22T10:02:03.402Z,6940.00
2019-04-22T10:03:25.942Z,7224.00
2019-04-22T10:04:30.228Z,7840.00
2019-04-22T10:05:29.319Z,20320.00
2019-04-22T10:06:39.597Z,91456.00
2019-04-22T10:07:44.905Z,95200.00
2019-04-22T10:08:33.877Z,104096.00
2019-04-22T10:09:40.629Z,111680.00
2019-04-22T10:10:28.123Z,89440.00
2019-04-22T10:11:32.618Z,109312.00
2019-04-22T10:12:31.573Z,103520.00
2019-04-22T10:13:53.744Z,101856.00
2019-04-22T10:14:32.407Z,108672.00
2019-04-22T10:15:30.718Z,97440.00
2019-04-22T10:16:31.377Z,92096.00
2019-04-22T10:17:25.154Z,85440.00
2019-04-22T10:18:26.232Z,104096.00
2019-04-22T10:19:49.346Z,83616.00
2019-04-22T10:20:28.187Z,86272.00
2019-04-22T10:21:35.608Z,73696.00
2019-04-22T10:22:32.119Z,99456.00
2019-04-22T10:24:30.120Z,102272.00
2019-04-22T10:25:52.281Z,87680.00
2019-04-22T10:26:24.479Z,104640.00
2019-04-22T10:27:26.873Z,72576.00
2019-04-22T10:28:32.762Z,87744.00
2019-04-22T10:29:24.854Z,60608.00
2019-04-22T10:30:33.954Z,47968.00
2019-04-22T10:31:49.842Z,98368.00
2019-04-22T10:32:27.064Z,77312.00
2019-04-22T10:33:22.042Z,76640.00
2019-04-22T10:34:15.459Z,65408.00
2019-04-22T10:35:06.829Z,78496.00
2019-04-22T10:36:03.628Z,84512.00
2019-04-22T10:37:24.263Z,41824.00
2019-04-22T10:38:02.355Z,73312.00
2019-04-22T10:39:02.410Z,47712.00
2019-04-22T10:40:05.745Z,75584.00
2019-04-22T10:41:02.728Z,36000.00
2019-04-22T10:42:02.885Z,49888.00
2019-04-22T10:43:23.517Z,49792.00
2019-04-22T10:44:03.501Z,36544.00
2019-04-22T10:45:03.803Z,45920.00
2019-04-22T10:46:03.969Z,47456.00
2019-04-22T10:47:02.582Z,52064.00
2019-04-22T10:48:03.897Z,41152.00
2019-04-22T10:49:24.487Z,41440.00
2019-04-22T10:50:02.806Z,27712.00
2019-04-22T10:51:02.686Z,33536.00
2019-04-22T10:52:02.748Z,27904.00
2019-04-22T10:53:03.541Z,27040.00
2019-04-22T10:54:02.731Z,34976.00
2019-04-22T10:55:23.781Z,57888.00
2019-04-22T10:56:03.244Z,52064.00
2019-04-22T10:57:03.241Z,25888.00
2019-04-22T10:58:02.835Z,64384.00
2019-04-22T10:59:03.035Z,81888.00
2019-04-22T11:00:02.964Z,39200.00
2019-04-22T11:01:25.531Z,66816.00
2019-04-22T11:02:03.402Z,19072.00
2019-04-22T11:03:03.986Z,14428.00
2019-04-22T11:04:03.496Z,9160.00
2019-04-22T11:05:04.055Z,9556.00
2019-04-22T11:06:03.290Z,9616.00
2019-04-22T11:07:30.805Z,9476.00
2019-04-22T11:08:06.719Z,9436.00
2019-04-22T11:09:04.937Z,9452.00
2019-04-22T11:10:20.475Z,9472.00
2019-04-22T11:11:15.113Z,9372.00
2019-04-22T11:12:09.941Z,9276.00
2019-04-22T11:13:24.340Z,9416.00
2019-04-22T11:14:04.186Z,9396.00
2019-04-22T11:15:03.516Z,9304.00
2019-04-22T11:16:03.567Z,9412.00
2019-04-22T11:17:05.304Z,9528.00
2019-04-22T11:18:03.322Z,9280.00
2019-04-22T11:19:25.554Z,9548.00
2019-04-22T11:20:03.807Z,9432.00
2019-04-22T11:21:03.356Z,9500.00
2019-04-22T11:22:09.771Z,9504.00
2019-04-22T11:23:04.579Z,9560.00
2019-04-22T11:24:04.906Z,9420.00
2019-04-22T11:25:25.521Z,9548.00
2019-04-22T11:26:03.870Z,9516.00
2019-04-22T11:27:05.191Z,9556.00
2019-04-22T11:28:03.554Z,9576.00
2019-04-22T11:29:03.661Z,9540.00
2019-04-22T11:30:03.895Z,9524.00
2019-04-22T11:31:24.598Z,9560.00
2019-04-22T11:32:04.293Z,9580.00
2019-04-22T11:33:04.560Z,9448.00
2019-04-22T11:34:03.681Z,9532.00
2019-04-22T11:35:03.772Z,9604.00
2019-04-22T11:36:03.879Z,9540.00
2019-04-22T11:37:24.935Z,9608.00
2019-04-22T11:38:04.586Z,9636.00
2019-04-22T11:39:06.079Z,9608.00
2019-04-22T11:40:14.823Z,9560.00
2019-04-22T11:41:05.305Z,9680.00
2019-04-22T11:42:04.499Z,9772.00
2019-04-22T11:43:26.083Z,9680.00
2019-04-22T11:44:05.304Z,9644.00
2019-04-22T11:45:03.912Z,9608.00
2019-04-22T11:46:05.102Z,9620.00
2019-04-22T11:47:05.263Z,9588.00
2019-04-22T11:48:05.290Z,9652.00
2019-04-22T11:49:25.858Z,9660.00
2019-04-22T11:50:04.015Z,9680.00
2019-04-22T11:51:04.364Z,9680.00
2019-04-22T11:52:06.567Z,9668.00
2019-04-22T11:53:04.793Z,9612.00
2019-04-22T11:54:05.190Z,9660.00
2019-04-22T11:55:26.679Z,9652.00
2019-04-22T11:56:04.809Z,9616.00
2019-04-22T11:57:05.469Z,9624.00
2019-04-22T11:58:04.250Z,9560.00
2019-04-22T11:59:04.804Z,9388.00
2019-04-22T12:00:04.988Z,9376.00
2019-04-22T12:01:26.533Z,9440.00
2019-04-22T12:02:04.723Z,9384.00
2019-04-22T12:03:05.189Z,9436.00
2019-04-22T12:04:04.353Z,9416.00
2019-04-22T12:05:05.969Z,9416.00
2019-04-22T12:06:04.370Z,9464.00
2019-04-22T12:07:26.640Z,9444.00
2019-04-22T12:08:04.953Z,9364.00
2019-04-22T12:09:05.643Z,9440.00
2019-04-22T12:10:17.886Z,9448.00
2019-04-22T12:11:06.014Z,9492.00
2019-04-22T12:12:05.766Z,9452.00
2019-04-22T12:13:26.205Z,9404.00
2019-04-22T12:14:04.562Z,9416.00
2019-04-22T12:15:04.587Z,9412.00
2019-04-22T12:16:05.305Z,9468.00
2019-04-22T12:17:05.736Z,9432.00
2019-04-22T12:18:04.636Z,9516.00
2019-04-22T12:19:27.052Z,9284.00
2019-04-22T12:20:07.360Z,9460.00
2019-04-22T12:21:05.426Z,9468.00
2019-04-22T12:22:04.916Z,9512.00
2019-04-22T12:23:05.124Z,9528.00
2019-04-22T12:24:05.558Z,9548.00
2019-04-22T12:25:35.098Z,9464.00
2019-04-22T12:26:09.246Z,9516.00
2019-04-22T12:27:06.284Z,9580.00
2019-04-22T12:28:05.312Z,9580.00
2019-04-22T12:29:04.923Z,9564.00
2019-04-22T12:30:05.064Z,9548.00
2019-04-22T12:31:27.140Z,9540.00
2019-04-22T12:32:05.338Z,9528.00
2019-04-22T12:33:08.803Z,9604.00
2019-04-22T12:34:06.013Z,9568.00
2019-04-22T12:35:05.360Z,9348.00
2019-04-22T12:36:06.407Z,9556.00
2019-04-22T12:37:35.629Z,9596.00
2019-04-22T12:38:08.662Z,9648.00
2019-04-22T12:39:05.224Z,9632.00
2019-04-22T12:40:06.410Z,9568.00
2019-04-22T12:41:09.610Z,9496.00
2019-04-22T12:42:06.170Z,9440.00
2019-04-22T12:43:27.828Z,9484.00
2019-04-22T12:44:05.289Z,9536.00
2019-04-22T12:45:06.348Z,9464.00
2019-04-22T12:46:06.079Z,9464.00
2019-04-22T12:47:06.123Z,9408.00
2019-04-22T12:48:06.403Z,9404.00
2019-04-22T12:49:27.937Z,9236.00
2019-04-22T12:50:12.270Z,8764.00
2019-04-22T12:51:06.906Z,9416.00
2019-04-22T12:52:07.191Z,9224.00
2019-04-22T12:53:10.641Z,9056.00
2019-04-22T12:54:06.840Z,9100.00
2019-04-22T12:55:27.853Z,9156.00
2019-04-22T12:56:06.930Z,9160.00
2019-04-22T12:57:05.877Z,9184.00
2019-04-22T12:58:05.582Z,9152.00
2019-04-22T12:59:05.763Z,9128.00
2019-04-22T13:00:05.833Z,9220.00
2019-04-22T13:01:26.880Z,9308.00
2019-04-22T13:02:07.098Z,9288.00
2019-04-22T13:03:05.668Z,9204.00
2019-04-22T13:04:09.386Z,9356.00
2019-04-22T13:05:06.002Z,9300.00
2019-04-22T13:06:05.963Z,9188.00
2019-04-22T13:07:26.833Z,9208.00
2019-04-22T13:08:05.791Z,9156.00
2019-04-22T13:09:06.212Z,9060.00
2019-04-22T13:10:06.063Z,9136.00
2019-04-22T13:11:11.761Z,9212.00
2019-04-22T13:12:06.897Z,9228.00
2019-04-22T13:13:27.203Z,8996.00
2019-04-22T13:14:07.086Z,9136.00
2019-04-22T13:15:06.521Z,9300.00
2019-04-22T13:16:07.007Z,9032.00
2019-04-22T13:17:06.249Z,9092.00
2019-04-22T13:18:17.084Z,9108.00
2019-04-22T13:19:28.340Z,9144.00
2019-04-22T13:20:06.072Z,9100.00
2019-04-22T13:21:06.546Z,9128.00
2019-04-22T13:22:07.037Z,9112.00
2019-04-22T13:23:07.574Z,9148.00
2019-04-22T13:24:07.071Z,9264.00
2019-04-22T13:25:30.049Z,9164.00
2019-04-22T13:26:07.450Z,9232.00
2019-04-22T13:27:06.669Z,9244.00
2019-04-22T13:28:07.234Z,9236.00
2019-04-22T13:29:07.327Z,9652.00
2019-04-22T13:30:06.341Z,9412.00
2019-04-22T13:31:28.688Z,9580.00
2019-04-22T13:32:06.889Z,9776.00
2019-04-22T13:33:07.067Z,14720.00
2019-04-22T13:34:13.320Z,31424.00
2019-04-22T13:35:07.110Z,50016.00
2019-04-22T13:36:07.885Z,39168.00
2019-04-22T13:37:28.582Z,46304.00
2019-04-22T13:38:06.908Z,58432.00
2019-04-22T13:39:06.996Z,66400.00
2019-04-22T13:40:07.366Z,47104.00
2019-04-22T13:41:20.428Z,46944.00
2019-04-22T13:42:11.892Z,45888.00
2019-04-22T13:43:29.067Z,45984.00
2019-04-22T13:44:07.083Z,41216.00
2019-04-22T13:45:07.630Z,43520.00
2019-04-22T13:46:07.973Z,48512.00
2019-04-22T13:47:26.942Z,43232.00
2019-04-22T13:48:22.054Z,51424.00
2019-04-22T13:50:01.298Z,48448.00